sensor_id;sensor_type;location;lat;lon;timestamp;P1;durP1;ratioP1;P2;durP2;ratioP2
11054;SDS011;5580;50.106;8.702;2022-10-16T00:00:32;9.07;;;5.60;;
11054;SDS011;5580;50.106;8.702;2022-10-16T00:03:00;9.30;;;5.93;;
11054;SDS011;5580;50.106;8.702;2022-10-16T00:05:26;13.07;;;5.80;;
11054;SDS011;5580;50.106;8.702;2022-10-16T00:07:51;10.87;;;5.60;;
11054;SDS011;5580;50.106;8.702;2022-10-16T00:10:17;8.47;;;5.63;;
11054;SDS011;5580;50.106;8.702;2022-10-16T00:12:42;10.60;;;5.50;;
11054;SDS011;5580;50.106;8.702;2022-10-16T00:15:08;8.97;;;5.70;;
11054;SDS011;5580;50.106;8.702;2022-10-16T00:17:34;10.23;;;5.60;;
11054;SDS011;5580;50.106;8.702;2022-10-16T00:19:59;10.13;;;6.30;;
11054;SDS011;5580;50.106;8.702;2022-10-16T00:22:25;9.43;;;6.00;;
11054;SDS011;5580;50.106;8.702;2022-10-16T00:24:51;9.47;;;6.07;;
11054;SDS011;5580;50.106;8.702;2022-10-16T00:27:16;9.83;;;5.70;;
11054;SDS011;5580;50.106;8.702;2022-10-16T00:29:42;11.00;;;5.53;;
11054;SDS011;5580;50.106;8.702;2022-10-16T00:32:08;9.27;;;5.60;;
11054;SDS011;5580;50.106;8.702;2022-10-16T00:34:34;8.40;;;5.63;;
11054;SDS011;5580;50.106;8.702;2022-10-16T00:37:00;8.57;;;5.50;;
11054;SDS011;5580;50.106;8.702;2022-10-16T00:39:25;9.33;;;5.70;;
11054;SDS011;5580;50.106;8.702;2022-10-16T00:41:51;10.00;;;6.10;;
11054;SDS011;5580;50.106;8.702;2022-10-16T00:47:09;8.73;;;5.60;;
11054;SDS011;5580;50.106;8.702;2022-10-16T00:49:37;12.57;;;5.53;;
11054;SDS011;5580;50.106;8.702;2022-10-16T00:52:03;9.13;;;5.30;;
11054;SDS011;5580;50.106;8.702;2022-10-16T00:54:31;8.43;;;5.23;;
11054;SDS011;5580;50.106;8.702;2022-10-16T00:56:59;8.57;;;5.53;;
11054;SDS011;5580;50.106;8.702;2022-10-16T00:59:27;8.63;;;5.00;;
11054;SDS011;5580;50.106;8.702;2022-10-16T01:02:02;7.87;;;4.87;;
11054;SDS011;5580;50.106;8.702;2022-10-16T01:04:31;10.23;;;4.80;;
11054;SDS011;5580;50.106;8.702;2022-10-16T01:17:34;8.80;;;4.90;;
11054;SDS011;5580;50.106;8.702;2022-10-16T01:20:31;8.90;;;4.47;;
11054;SDS011;5580;50.106;8.702;2022-10-16T01:28:34;7.23;;;4.63;;
11054;SDS011;5580;50.106;8.702;2022-10-16T01:31:05;7.33;;;4.57;;
11054;SDS011;5580;50.106;8.702;2022-10-16T01:33:35;7.17;;;4.60;;
11054;SDS011;5580;50.106;8.702;2022-10-16T01:36:12;5.50;;;4.20;;
11054;SDS011;5580;50.106;8.702;2022-10-16T01:38:40;7.63;;;4.20;;
11054;SDS011;5580;50.106;8.702;2022-10-16T01:41:11;4.60;;;4.00;;
11054;SDS011;5580;50.106;8.702;2022-10-16T01:43:49;6.83;;;3.90;;
11054;SDS011;5580;50.106;8.702;2022-10-16T01:46:54;4.93;;;4.23;;
11054;SDS011;5580;50.106;8.702;2022-10-16T01:49:21;7.93;;;3.80;;
11054;SDS011;5580;50.106;8.702;2022-10-16T01:51:50;9.70;;;4.23;;
11054;SDS011;5580;50.106;8.702;2022-10-16T01:54:20;4.03;;;3.53;;
11054;SDS011;5580;50.106;8.702;2022-10-16T01:56:48;5.30;;;3.73;;
11054;SDS011;5580;50.106;8.702;2022-10-16T01:59:15;6.30;;;3.90;;
11054;SDS011;5580;50.106;8.702;2022-10-16T02:01:49;5.90;;;3.70;;
11054;SDS011;5580;50.106;8.702;2022-10-16T02:06:57;5.07;;;3.43;;
11054;SDS011;5580;50.106;8.702;2022-10-16T02:09:23;4.70;;;3.13;;
11054;SDS011;5580;50.106;8.702;2022-10-16T02:11:50;3.80;;;3.27;;
11054;SDS011;5580;50.106;8.702;2022-10-16T02:14:19;3.30;;;3.00;;
11054;SDS011;5580;50.106;8.702;2022-10-16T02:16:45;4.33;;;3.40;;
11054;SDS011;5580;50.106;8.702;2022-10-16T02:19:14;3.90;;;3.20;;
11054;SDS011;5580;50.106;8.702;2022-10-16T02:24:27;3.80;;;2.73;;
11054;SDS011;5580;50.106;8.702;2022-10-16T02:29:52;4.97;;;3.10;;
11054;SDS011;5580;50.106;8.702;2022-10-16T02:32:24;4.30;;;3.00;;
11054;SDS011;5580;50.106;8.702;2022-10-16T02:34:53;2.83;;;2.63;;
11054;SDS011;5580;50.106;8.702;2022-10-16T02:37:19;5.50;;;2.70;;
11054;SDS011;5580;50.106;8.702;2022-10-16T02:39:45;4.13;;;2.80;;
11054;SDS011;5580;50.106;8.702;2022-10-16T02:42:13;4.40;;;2.87;;
11054;SDS011;5580;50.106;8.702;2022-10-16T02:44:39;5.43;;;2.60;;
11054;SDS011;5580;50.106;8.702;2022-10-16T02:47:05;3.10;;;2.80;;
11054;SDS011;5580;50.106;8.702;2022-10-16T02:49:31;3.60;;;2.70;;
11054;SDS011;5580;50.106;8.702;2022-10-16T02:51:57;3.17;;;2.60;;
11054;SDS011;5580;50.106;8.702;2022-10-16T02:54:22;3.13;;;2.60;;
11054;SDS011;5580;50.106;8.702;2022-10-16T02:56:48;3.30;;;2.40;;
11054;SDS011;5580;50.106;8.702;2022-10-16T02:59:14;3.03;;;2.50;;
11054;SDS011;5580;50.106;8.702;2022-10-16T03:01:40;2.50;;;2.30;;
11054;SDS011;5580;50.106;8.702;2022-10-16T03:04:06;3.27;;;2.23;;
11054;SDS011;5580;50.106;8.702;2022-10-16T03:06:31;3.47;;;2.50;;
11054;SDS011;5580;50.106;8.702;2022-10-16T03:08:57;6.03;;;2.63;;
11054;SDS011;5580;50.106;8.702;2022-10-16T03:11:22;3.23;;;2.53;;
11054;SDS011;5580;50.106;8.702;2022-10-16T03:13:48;6.97;;;2.77;;
11054;SDS011;5580;50.106;8.702;2022-10-16T03:16:14;4.13;;;2.50;;
11054;SDS011;5580;50.106;8.702;2022-10-16T03:18:39;4.13;;;2.40;;
11054;SDS011;5580;50.106;8.702;2022-10-16T03:21:05;3.53;;;2.67;;
11054;SDS011;5580;50.106;8.702;2022-10-16T03:23:31;5.03;;;2.67;;
11054;SDS011;5580;50.106;8.702;2022-10-16T03:25:56;3.13;;;2.43;;
11054;SDS011;5580;50.106;8.702;2022-10-16T03:28:22;2.93;;;2.67;;
11054;SDS011;5580;50.106;8.702;2022-10-16T03:30:47;2.80;;;2.57;;
11054;SDS011;5580;50.106;8.702;2022-10-16T03:33:13;4.20;;;2.63;;
11054;SDS011;5580;50.106;8.702;2022-10-16T03:35:38;4.60;;;2.70;;
11054;SDS011;5580;50.106;8.702;2022-10-16T03:38:04;3.00;;;2.50;;
11054;SDS011;5580;50.106;8.702;2022-10-16T03:40:29;2.67;;;2.13;;
11054;SDS011;5580;50.106;8.702;2022-10-16T03:42:57;3.07;;;2.27;;
11054;SDS011;5580;50.106;8.702;2022-10-16T03:45:23;4.23;;;2.47;;
11054;SDS011;5580;50.106;8.702;2022-10-16T03:47:49;4.00;;;2.50;;
11054;SDS011;5580;50.106;8.702;2022-10-16T03:50:15;2.57;;;2.27;;
11054;SDS011;5580;50.106;8.702;2022-10-16T03:52:40;5.17;;;2.13;;
11054;SDS011;5580;50.106;8.702;2022-10-16T03:55:06;3.93;;;2.60;;
11054;SDS011;5580;50.106;8.702;2022-10-16T03:57:32;5.53;;;2.70;;
11054;SDS011;5580;50.106;8.702;2022-10-16T03:59:58;2.07;;;1.90;;
11054;SDS011;5580;50.106;8.702;2022-10-16T04:02:23;4.60;;;2.53;;
11054;SDS011;5580;50.106;8.702;2022-10-16T04:04:49;3.13;;;2.87;;
11054;SDS011;5580;50.106;8.702;2022-10-16T04:07:15;3.83;;;2.60;;
11054;SDS011;5580;50.106;8.702;2022-10-16T04:09:40;4.47;;;2.50;;
11054;SDS011;5580;50.106;8.702;2022-10-16T04:12:07;3.33;;;3.00;;
11054;SDS011;5580;50.106;8.702;2022-10-16T04:14:32;2.80;;;2.60;;
11054;SDS011;5580;50.106;8.702;2022-10-16T04:16:58;4.43;;;2.90;;
11054;SDS011;5580;50.106;8.702;2022-10-16T04:19:23;6.63;;;3.10;;
11054;SDS011;5580;50.106;8.702;2022-10-16T04:21:49;5.57;;;3.30;;
11054;SDS011;5580;50.106;8.702;2022-10-16T04:24:14;5.00;;;3.10;;
11054;SDS011;5580;50.106;8.702;2022-10-16T04:26:40;6.70;;;3.37;;
11054;SDS011;5580;50.106;8.702;2022-10-16T04:29:05;3.10;;;2.80;;
11054;SDS011;5580;50.106;8.702;2022-10-16T04:31:32;4.00;;;2.93;;
11054;SDS011;5580;50.106;8.702;2022-10-16T04:33:57;3.70;;;3.10;;
11054;SDS011;5580;50.106;8.702;2022-10-16T04:36:23;6.33;;;3.27;;
11054;SDS011;5580;50.106;8.702;2022-10-16T04:38:49;3.87;;;3.23;;
11054;SDS011;5580;50.106;8.702;2022-10-16T04:41:14;4.50;;;2.87;;
11054;SDS011;5580;50.106;8.702;2022-10-16T04:43:40;4.03;;;3.17;;
11054;SDS011;5580;50.106;8.702;2022-10-16T04:46:06;3.70;;;3.17;;
11054;SDS011;5580;50.106;8.702;2022-10-16T04:48:31;5.03;;;3.13;;
11054;SDS011;5580;50.106;8.702;2022-10-16T04:50:57;9.37;;;3.40;;
11054;SDS011;5580;50.106;8.702;2022-10-16T04:53:23;4.80;;;3.10;;
11054;SDS011;5580;50.106;8.702;2022-10-16T04:55:49;7.30;;;3.37;;
11054;SDS011;5580;50.106;8.702;2022-10-16T04:58:15;6.90;;;3.10;;
11054;SDS011;5580;50.106;8.702;2022-10-16T05:00:40;6.33;;;2.93;;
11054;SDS011;5580;50.106;8.702;2022-10-16T05:03:06;5.60;;;3.37;;
11054;SDS011;5580;50.106;8.702;2022-10-16T05:05:33;5.80;;;3.00;;
11054;SDS011;5580;50.106;8.702;2022-10-16T05:08:00;3.00;;;2.70;;
11054;SDS011;5580;50.106;8.702;2022-10-16T05:10:25;6.10;;;2.93;;
11054;SDS011;5580;50.106;8.702;2022-10-16T05:12:51;5.67;;;3.00;;
11054;SDS011;5580;50.106;8.702;2022-10-16T05:15:17;3.57;;;2.80;;
11054;SDS011;5580;50.106;8.702;2022-10-16T05:17:43;5.40;;;3.23;;
11054;SDS011;5580;50.106;8.702;2022-10-16T05:20:09;6.03;;;3.40;;
11054;SDS011;5580;50.106;8.702;2022-10-16T05:22:34;3.80;;;3.33;;
11054;SDS011;5580;50.106;8.702;2022-10-16T05:25:00;3.60;;;3.13;;
11054;SDS011;5580;50.106;8.702;2022-10-16T05:27:26;3.80;;;3.10;;
11054;SDS011;5580;50.106;8.702;2022-10-16T05:29:51;7.10;;;3.00;;
11054;SDS011;5580;50.106;8.702;2022-10-16T05:32:17;4.53;;;3.40;;
11054;SDS011;5580;50.106;8.702;2022-10-16T05:34:43;4.17;;;3.33;;
11054;SDS011;5580;50.106;8.702;2022-10-16T05:37:09;3.37;;;3.07;;
11054;SDS011;5580;50.106;8.702;2022-10-16T05:39:36;4.63;;;3.37;;
11054;SDS011;5580;50.106;8.702;2022-10-16T05:42:02;5.43;;;3.23;;
11054;SDS011;5580;50.106;8.702;2022-10-16T05:44:28;3.93;;;3.10;;
11054;SDS011;5580;50.106;8.702;2022-10-16T05:46:54;7.00;;;3.23;;
11054;SDS011;5580;50.106;8.702;2022-10-16T05:49:20;6.40;;;3.43;;
11054;SDS011;5580;50.106;8.702;2022-10-16T05:51:45;4.37;;;3.40;;
11054;SDS011;5580;50.106;8.702;2022-10-16T05:54:11;5.93;;;3.60;;
11054;SDS011;5580;50.106;8.702;2022-10-16T05:56:36;4.77;;;3.20;;
11054;SDS011;5580;50.106;8.702;2022-10-16T05:59:03;4.87;;;3.43;;
11054;SDS011;5580;50.106;8.702;2022-10-16T06:01:29;3.77;;;3.20;;
11054;SDS011;5580;50.106;8.702;2022-10-16T06:03:55;4.53;;;3.20;;
11054;SDS011;5580;50.106;8.702;2022-10-16T06:06:23;6.13;;;3.50;;
11054;SDS011;5580;50.106;8.702;2022-10-16T06:08:51;5.57;;;3.50;;
11054;SDS011;5580;50.106;8.702;2022-10-16T06:11:19;10.33;;;3.80;;
11054;SDS011;5580;50.106;8.702;2022-10-16T06:13:50;8.60;;;4.10;;
11054;SDS011;5580;50.106;8.702;2022-10-16T06:16:17;5.80;;;3.60;;
11054;SDS011;5580;50.106;8.702;2022-10-16T06:18:43;4.60;;;3.63;;
11054;SDS011;5580;50.106;8.702;2022-10-16T06:21:09;5.87;;;3.73;;
11054;SDS011;5580;50.106;8.702;2022-10-16T06:23:36;7.30;;;4.20;;
11054;SDS011;5580;50.106;8.702;2022-10-16T06:26:08;5.53;;;3.97;;
11054;SDS011;5580;50.106;8.702;2022-10-16T06:28:36;4.63;;;3.60;;
11054;SDS011;5580;50.106;8.702;2022-10-16T06:31:03;7.80;;;3.80;;
11054;SDS011;5580;50.106;8.702;2022-10-16T06:33:30;5.17;;;3.73;;
11054;SDS011;5580;50.106;8.702;2022-10-16T06:36:02;6.37;;;4.00;;
11054;SDS011;5580;50.106;8.702;2022-10-16T06:38:29;8.30;;;4.60;;
11054;SDS011;5580;50.106;8.702;2022-10-16T06:40:55;8.93;;;4.60;;
11054;SDS011;5580;50.106;8.702;2022-10-16T06:43:21;6.40;;;4.37;;
11054;SDS011;5580;50.106;8.702;2022-10-16T06:45:51;7.43;;;4.70;;
11054;SDS011;5580;50.106;8.702;2022-10-16T06:48:20;10.90;;;5.10;;
11054;SDS011;5580;50.106;8.702;2022-10-16T06:50:56;7.80;;;5.37;;
11054;SDS011;5580;50.106;8.702;2022-10-16T06:53:28;14.13;;;5.47;;
11054;SDS011;5580;50.106;8.702;2022-10-16T06:55:55;10.23;;;5.77;;
11054;SDS011;5580;50.106;8.702;2022-10-16T06:58:21;9.87;;;6.27;;
11054;SDS011;5580;50.106;8.702;2022-10-16T07:00:47;11.33;;;6.33;;
11054;SDS011;5580;50.106;8.702;2022-10-16T07:03:13;11.27;;;6.13;;
11054;SDS011;5580;50.106;8.702;2022-10-16T07:05:40;13.33;;;6.50;;
11054;SDS011;5580;50.106;8.702;2022-10-16T07:08:07;10.53;;;6.30;;
11054;SDS011;5580;50.106;8.702;2022-10-16T07:10:33;11.40;;;6.80;;
11054;SDS011;5580;50.106;8.702;2022-10-16T07:12:59;10.83;;;6.93;;
11054;SDS011;5580;50.106;8.702;2022-10-16T07:15:25;15.87;;;7.33;;
11054;SDS011;5580;50.106;8.702;2022-10-16T07:17:51;15.77;;;7.50;;
11054;SDS011;5580;50.106;8.702;2022-10-16T07:20:17;11.27;;;7.57;;
11054;SDS011;5580;50.106;8.702;2022-10-16T07:22:43;11.33;;;7.20;;
11054;SDS011;5580;50.106;8.702;2022-10-16T07:25:08;12.97;;;7.07;;
11054;SDS011;5580;50.106;8.702;2022-10-16T07:27:34;16.50;;;7.30;;
11054;SDS011;5580;50.106;8.702;2022-10-16T07:29:59;9.43;;;6.73;;
11054;SDS011;5580;50.106;8.702;2022-10-16T07:32:25;13.43;;;7.20;;
11054;SDS011;5580;50.106;8.702;2022-10-16T07:34:51;14.27;;;7.67;;
11054;SDS011;5580;50.106;8.702;2022-10-16T07:37:18;12.70;;;7.03;;
11054;SDS011;5580;50.106;8.702;2022-10-16T07:39:43;13.17;;;7.10;;
11054;SDS011;5580;50.106;8.702;2022-10-16T07:42:09;17.23;;;7.10;;
11054;SDS011;5580;50.106;8.702;2022-10-16T07:44:34;14.00;;;6.10;;
11054;SDS011;5580;50.106;8.702;2022-10-16T07:47:00;11.03;;;6.20;;
11054;SDS011;5580;50.106;8.702;2022-10-16T07:49:26;10.53;;;6.03;;
11054;SDS011;5580;50.106;8.702;2022-10-16T07:51:51;9.97;;;6.23;;
11054;SDS011;5580;50.106;8.702;2022-10-16T07:54:17;9.53;;;5.90;;
11054;SDS011;5580;50.106;8.702;2022-10-16T07:56:42;9.70;;;5.67;;
11054;SDS011;5580;50.106;8.702;2022-10-16T07:59:08;10.77;;;6.00;;
11054;SDS011;5580;50.106;8.702;2022-10-16T08:01:34;13.33;;;5.90;;
11054;SDS011;5580;50.106;8.702;2022-10-16T08:03:59;12.87;;;5.70;;
11054;SDS011;5580;50.106;8.702;2022-10-16T08:06:25;8.60;;;5.47;;
11054;SDS011;5580;50.106;8.702;2022-10-16T08:08:50;9.87;;;5.53;;
11054;SDS011;5580;50.106;8.702;2022-10-16T08:11:16;9.60;;;5.90;;
11054;SDS011;5580;50.106;8.702;2022-10-16T08:13:42;9.70;;;5.67;;
11054;SDS011;5580;50.106;8.702;2022-10-16T08:16:08;11.43;;;5.57;;
11054;SDS011;5580;50.106;8.702;2022-10-16T08:18:35;9.90;;;5.87;;
11054;SDS011;5580;50.106;8.702;2022-10-16T08:21:02;9.60;;;5.80;;
11054;SDS011;5580;50.106;8.702;2022-10-16T08:23:29;10.60;;;6.13;;
11054;SDS011;5580;50.106;8.702;2022-10-16T08:25:55;10.17;;;5.80;;
11054;SDS011;5580;50.106;8.702;2022-10-16T08:28:22;9.00;;;6.10;;
11054;SDS011;5580;50.106;8.702;2022-10-16T08:30:48;10.20;;;6.23;;
11054;SDS011;5580;50.106;8.702;2022-10-16T08:33:13;13.67;;;6.67;;
11054;SDS011;5580;50.106;8.702;2022-10-16T08:35:39;14.70;;;6.67;;
11054;SDS011;5580;50.106;8.702;2022-10-16T08:38:05;14.30;;;7.27;;
11054;SDS011;5580;50.106;8.702;2022-10-16T08:40:32;12.60;;;7.43;;
11054;SDS011;5580;50.106;8.702;2022-10-16T08:43:20;11.60;;;6.97;;
11054;SDS011;5580;50.106;8.702;2022-10-16T08:46:02;12.60;;;8.13;;
11054;SDS011;5580;50.106;8.702;2022-10-16T08:48:35;13.97;;;8.37;;
11054;SDS011;5580;50.106;8.702;2022-10-16T08:51:29;13.07;;;8.27;;
11054;SDS011;5580;50.106;8.702;2022-10-16T08:53:57;12.10;;;8.67;;
11054;SDS011;5580;50.106;8.702;2022-10-16T08:56:25;14.07;;;9.10;;
11054;SDS011;5580;50.106;8.702;2022-10-16T08:58:51;13.83;;;9.20;;
11054;SDS011;5580;50.106;8.702;2022-10-16T09:01:18;14.80;;;9.10;;
11054;SDS011;5580;50.106;8.702;2022-10-16T09:06:33;14.13;;;8.57;;
11054;SDS011;5580;50.106;8.702;2022-10-16T09:22:40;14.13;;;9.93;;
11054;SDS011;5580;50.106;8.702;2022-10-16T09:25:17;16.03;;;9.97;;
11054;SDS011;5580;50.106;8.702;2022-10-16T09:27:47;14.67;;;9.93;;
11054;SDS011;5580;50.106;8.702;2022-10-16T09:30:17;14.80;;;10.03;;
11054;SDS011;5580;50.106;8.702;2022-10-16T09:32:45;15.73;;;10.43;;
11054;SDS011;5580;50.106;8.702;2022-10-16T09:35:17;16.30;;;10.80;;
11054;SDS011;5580;50.106;8.702;2022-10-16T09:37:50;15.10;;;10.30;;
11054;SDS011;5580;50.106;8.702;2022-10-16T09:42:50;19.60;;;13.37;;
11054;SDS011;5580;50.106;8.702;2022-10-16T09:45:26;17.20;;;12.83;;
11054;SDS011;5580;50.106;8.702;2022-10-16T09:47:51;20.00;;;12.40;;
11054;SDS011;5580;50.106;8.702;2022-10-16T09:50:25;18.33;;;13.37;;
11054;SDS011;5580;50.106;8.702;2022-10-16T09:55:49;20.60;;;13.27;;
11054;SDS011;5580;50.106;8.702;2022-10-16T09:58:15;19.57;;;12.60;;
11054;SDS011;5580;50.106;8.702;2022-10-16T10:00:41;20.87;;;12.87;;
11054;SDS011;5580;50.106;8.702;2022-10-16T10:03:16;20.53;;;12.77;;
11054;SDS011;5580;50.106;8.702;2022-10-16T10:06:15;17.77;;;12.50;;
11054;SDS011;5580;50.106;8.702;2022-10-16T10:12:21;17.63;;;12.40;;
11054;SDS011;5580;50.106;8.702;2022-10-16T10:14:17;18.63;;;12.30;;
11054;SDS011;5580;50.106;8.702;2022-10-16T10:16:43;17.50;;;11.97;;
11054;SDS011;5580;50.106;8.702;2022-10-16T10:19:19;19.43;;;11.23;;
11054;SDS011;5580;50.106;8.702;2022-10-16T10:21:46;13.70;;;9.27;;
11054;SDS011;5580;50.106;8.702;2022-10-16T10:24:13;12.93;;;8.93;;
11054;SDS011;5580;50.106;8.702;2022-10-16T10:35:26;11.17;;;7.23;;
11054;SDS011;5580;50.106;8.702;2022-10-16T10:46:03;8.50;;;5.40;;
11054;SDS011;5580;50.106;8.702;2022-10-16T10:54:17;10.80;;;7.23;;
11054;SDS011;5580;50.106;8.702;2022-10-16T10:56:58;13.43;;;8.00;;
11054;SDS011;5580;50.106;8.702;2022-10-16T10:59:44;13.43;;;8.93;;
11054;SDS011;5580;50.106;8.702;2022-10-16T11:05:02;13.83;;;9.97;;
11054;SDS011;5580;50.106;8.702;2022-10-16T11:07:40;14.60;;;10.43;;
11054;SDS011;5580;50.106;8.702;2022-10-16T11:10:35;13.77;;;10.27;;
11054;SDS011;5580;50.106;8.702;2022-10-16T11:13:28;15.07;;;10.93;;
11054;SDS011;5580;50.106;8.702;2022-10-16T11:16:03;17.73;;;11.50;;
11054;SDS011;5580;50.106;8.702;2022-10-16T11:21:12;17.23;;;11.80;;
11054;SDS011;5580;50.106;8.702;2022-10-16T11:23:53;15.67;;;11.37;;
11054;SDS011;5580;50.106;8.702;2022-10-16T11:26:41;15.47;;;11.87;;
11054;SDS011;5580;50.106;8.702;2022-10-16T11:29:19;16.90;;;12.00;;
11054;SDS011;5580;50.106;8.702;2022-10-16T11:32:00;15.43;;;12.13;;
11054;SDS011;5580;50.106;8.702;2022-10-16T11:34:45;16.40;;;11.77;;
11054;SDS011;5580;50.106;8.702;2022-10-16T11:37:23;15.63;;;11.60;;
11054;SDS011;5580;50.106;8.702;2022-10-16T11:39:50;19.43;;;12.37;;
11054;SDS011;5580;50.106;8.702;2022-10-16T11:42:26;16.07;;;10.83;;
11054;SDS011;5580;50.106;8.702;2022-10-16T11:47:36;14.00;;;10.50;;
11054;SDS011;5580;50.106;8.702;2022-10-16T11:50:12;15.10;;;10.70;;
11054;SDS011;5580;50.106;8.702;2022-10-16T11:52:44;19.10;;;10.67;;
11054;SDS011;5580;50.106;8.702;2022-10-16T11:55:32;15.53;;;10.03;;
11054;SDS011;5580;50.106;8.702;2022-10-16T11:58:03;11.60;;;8.87;;
11054;SDS011;5580;50.106;8.702;2022-10-16T12:06:23;11.43;;;8.10;;
11054;SDS011;5580;50.106;8.702;2022-10-16T12:08:52;13.50;;;8.20;;
11054;SDS011;5580;50.106;8.702;2022-10-16T12:16:59;11.40;;;7.07;;
11054;SDS011;5580;50.106;8.702;2022-10-16T12:19:28;23.67;;;6.80;;
11054;SDS011;5580;50.106;8.702;2022-10-16T12:21:56;9.60;;;6.47;;
11054;SDS011;5580;50.106;8.702;2022-10-16T12:24:41;10.23;;;6.03;;
11054;SDS011;5580;50.106;8.702;2022-10-16T12:27:21;9.30;;;6.20;;
11054;SDS011;5580;50.106;8.702;2022-10-16T12:29:59;7.17;;;5.83;;
11054;SDS011;5580;50.106;8.702;2022-10-16T12:34:56;8.10;;;6.00;;
11054;SDS011;5580;50.106;8.702;2022-10-16T12:37:26;10.20;;;6.27;;
11054;SDS011;5580;50.106;8.702;2022-10-16T12:39:56;7.17;;;5.17;;
11054;SDS011;5580;50.106;8.702;2022-10-16T12:44:51;5.97;;;4.70;;
11054;SDS011;5580;50.106;8.702;2022-10-16T12:47:36;5.37;;;4.47;;
11054;SDS011;5580;50.106;8.702;2022-10-16T12:52:49;6.77;;;4.97;;
11054;SDS011;5580;50.106;8.702;2022-10-16T12:55:16;6.07;;;5.00;;
11054;SDS011;5580;50.106;8.702;2022-10-16T13:21:35;5.80;;;4.90;;
11054;SDS011;5580;50.106;8.702;2022-10-16T13:29:52;4.97;;;4.50;;
11054;SDS011;5580;50.106;8.702;2022-10-16T13:32:25;5.87;;;4.80;;
11054;SDS011;5580;50.106;8.702;2022-10-16T13:34:51;7.80;;;5.13;;
11054;SDS011;5580;50.106;8.702;2022-10-16T13:37:19;7.03;;;5.10;;
11054;SDS011;5580;50.106;8.702;2022-10-16T13:39:47;7.03;;;4.73;;
11054;SDS011;5580;50.106;8.702;2022-10-16T13:42:26;7.17;;;4.90;;
11054;SDS011;5580;50.106;8.702;2022-10-16T13:44:53;7.63;;;5.23;;
11054;SDS011;5580;50.106;8.702;2022-10-16T13:47:21;6.33;;;4.90;;
11054;SDS011;5580;50.106;8.702;2022-10-16T13:49:47;7.07;;;5.27;;
11054;SDS011;5580;50.106;8.702;2022-10-16T13:52:24;7.07;;;4.80;;
11054;SDS011;5580;50.106;8.702;2022-10-16T13:54:50;7.80;;;5.20;;
11054;SDS011;5580;50.106;8.702;2022-10-16T13:57:16;8.53;;;4.70;;
11054;SDS011;5580;50.106;8.702;2022-10-16T13:59:42;10.00;;;4.57;;
11054;SDS011;5580;50.106;8.702;2022-10-16T14:02:14;5.77;;;4.50;;
11054;SDS011;5580;50.106;8.702;2022-10-16T14:04:44;7.07;;;5.00;;
11054;SDS011;5580;50.106;8.702;2022-10-16T14:07:14;5.87;;;4.40;;
11054;SDS011;5580;50.106;8.702;2022-10-16T14:09:47;6.43;;;4.73;;
11054;SDS011;5580;50.106;8.702;2022-10-16T14:12:14;6.20;;;4.60;;
11054;SDS011;5580;50.106;8.702;2022-10-16T14:14:41;6.17;;;4.50;;
11054;SDS011;5580;50.106;8.702;2022-10-16T14:17:15;4.40;;;4.00;;
11054;SDS011;5580;50.106;8.702;2022-10-16T14:20:00;7.33;;;4.57;;
11054;SDS011;5580;50.106;8.702;2022-10-16T14:22:30;6.47;;;4.57;;
11054;SDS011;5580;50.106;8.702;2022-10-16T14:24:58;4.93;;;4.17;;
11054;SDS011;5580;50.106;8.702;2022-10-16T14:32:54;5.57;;;4.40;;
11054;SDS011;5580;50.106;8.702;2022-10-16T14:35:35;9.40;;;4.50;;
11054;SDS011;5580;50.106;8.702;2022-10-16T14:38:03;8.23;;;4.40;;
11054;SDS011;5580;50.106;8.702;2022-10-16T14:40:31;9.27;;;4.67;;
11054;SDS011;5580;50.106;8.702;2022-10-16T14:43:00;6.13;;;4.40;;
11054;SDS011;5580;50.106;8.702;2022-10-16T14:45:27;4.63;;;4.23;;
11054;SDS011;5580;50.106;8.702;2022-10-16T14:48:02;6.87;;;4.70;;
11054;SDS011;5580;50.106;8.702;2022-10-16T14:50:40;7.30;;;4.97;;
11054;SDS011;5580;50.106;8.702;2022-10-16T14:53:12;10.33;;;5.23;;
11054;SDS011;5580;50.106;8.702;2022-10-16T14:55:38;8.40;;;5.40;;
11054;SDS011;5580;50.106;8.702;2022-10-16T14:58:05;6.80;;;5.00;;
11054;SDS011;5580;50.106;8.702;2022-10-16T15:00:31;8.47;;;5.30;;
11054;SDS011;5580;50.106;8.702;2022-10-16T15:02:56;8.50;;;5.27;;
11054;SDS011;5580;50.106;8.702;2022-10-16T15:05:23;7.47;;;5.27;;
11054;SDS011;5580;50.106;8.702;2022-10-16T15:07:51;9.50;;;5.17;;
11054;SDS011;5580;50.106;8.702;2022-10-16T15:10:18;6.27;;;4.97;;
11054;SDS011;5580;50.106;8.702;2022-10-16T15:12:45;7.37;;;5.00;;
11054;SDS011;5580;50.106;8.702;2022-10-16T15:18:02;5.30;;;4.70;;
11054;SDS011;5580;50.106;8.702;2022-10-16T15:20:29;7.30;;;4.50;;
11054;SDS011;5580;50.106;8.702;2022-10-16T15:22:58;7.03;;;4.77;;
11054;SDS011;5580;50.106;8.702;2022-10-16T15:28:02;9.83;;;4.43;;
11054;SDS011;5580;50.106;8.702;2022-10-16T15:30:29;9.27;;;4.63;;
11054;SDS011;5580;50.106;8.702;2022-10-16T15:32:55;7.60;;;4.70;;
11054;SDS011;5580;50.106;8.702;2022-10-16T15:35:21;9.10;;;4.53;;
11054;SDS011;5580;50.106;8.702;2022-10-16T15:37:47;6.10;;;4.50;;
11054;SDS011;5580;50.106;8.702;2022-10-16T15:40:13;5.07;;;4.33;;
11054;SDS011;5580;50.106;8.702;2022-10-16T15:42:40;8.93;;;4.70;;
11054;SDS011;5580;50.106;8.702;2022-10-16T15:45:06;6.90;;;4.70;;
11054;SDS011;5580;50.106;8.702;2022-10-16T15:47:31;7.63;;;4.93;;
11054;SDS011;5580;50.106;8.702;2022-10-16T15:49:57;7.27;;;4.83;;
11054;SDS011;5580;50.106;8.702;2022-10-16T15:52:23;7.17;;;4.83;;
11054;SDS011;5580;50.106;8.702;2022-10-16T15:54:49;8.40;;;5.00;;
11054;SDS011;5580;50.106;8.702;2022-10-16T15:57:14;8.07;;;4.90;;
11054;SDS011;5580;50.106;8.702;2022-10-16T15:59:40;8.50;;;5.00;;
11054;SDS011;5580;50.106;8.702;2022-10-16T16:02:05;12.00;;;5.37;;
11054;SDS011;5580;50.106;8.702;2022-10-16T16:04:32;9.50;;;5.50;;
11054;SDS011;5580;50.106;8.702;2022-10-16T16:06:58;10.20;;;5.23;;
11054;SDS011;5580;50.106;8.702;2022-10-16T16:09:23;8.13;;;5.13;;
11054;SDS011;5580;50.106;8.702;2022-10-16T16:11:49;7.03;;;5.13;;
11054;SDS011;5580;50.106;8.702;2022-10-16T16:14:16;8.50;;;5.27;;
11054;SDS011;5580;50.106;8.702;2022-10-16T16:16:41;11.23;;;5.17;;
11054;SDS011;5580;50.106;8.702;2022-10-16T16:19:07;9.47;;;5.07;;
11054;SDS011;5580;50.106;8.702;2022-10-16T16:21:34;8.87;;;5.30;;
11054;SDS011;5580;50.106;8.702;2022-10-16T16:23:59;8.07;;;5.63;;
11054;SDS011;5580;50.106;8.702;2022-10-16T16:28:54;12.43;;;6.70;;
11054;SDS011;5580;50.106;8.702;2022-10-16T16:31:23;11.70;;;6.67;;
11054;SDS011;5580;50.106;8.702;2022-10-16T16:33:49;13.93;;;7.87;;
11054;SDS011;5580;50.106;8.702;2022-10-16T16:36:16;14.43;;;9.77;;
11054;SDS011;5580;50.106;8.702;2022-10-16T16:38:42;17.13;;;11.40;;
11054;SDS011;5580;50.106;8.702;2022-10-16T16:41:22;15.47;;;9.13;;
11054;SDS011;5580;50.106;8.702;2022-10-16T16:43:50;13.23;;;8.43;;
11054;SDS011;5580;50.106;8.702;2022-10-16T16:46:17;13.37;;;8.57;;
11054;SDS011;5580;50.106;8.702;2022-10-16T16:48:43;14.63;;;8.27;;
11054;SDS011;5580;50.106;8.702;2022-10-16T16:51:10;15.67;;;9.83;;
11054;SDS011;5580;50.106;8.702;2022-10-16T16:53:40;14.37;;;8.70;;
11054;SDS011;5580;50.106;8.702;2022-10-16T16:56:06;13.67;;;8.73;;
11054;SDS011;5580;50.106;8.702;2022-10-16T16:58:32;13.57;;;7.83;;
11054;SDS011;5580;50.106;8.702;2022-10-16T17:00:58;14.70;;;8.20;;
11054;SDS011;5580;50.106;8.702;2022-10-16T17:03:33;13.63;;;7.80;;
11054;SDS011;5580;50.106;8.702;2022-10-16T17:08:27;12.13;;;7.97;;
11054;SDS011;5580;50.106;8.702;2022-10-16T17:10:54;15.77;;;9.07;;
11054;SDS011;5580;50.106;8.702;2022-10-16T17:13:26;15.60;;;9.47;;
11054;SDS011;5580;50.106;8.702;2022-10-16T17:15:54;16.83;;;9.77;;
11054;SDS011;5580;50.106;8.702;2022-10-16T17:18:20;16.07;;;8.80;;
11054;SDS011;5580;50.106;8.702;2022-10-16T17:20:48;14.63;;;8.43;;
11054;SDS011;5580;50.106;8.702;2022-10-16T17:23:14;14.20;;;7.93;;
11054;SDS011;5580;50.106;8.702;2022-10-16T17:25:42;11.83;;;7.63;;
11054;SDS011;5580;50.106;8.702;2022-10-16T17:28:08;13.20;;;8.00;;
11054;SDS011;5580;50.106;8.702;2022-10-16T17:30:36;13.53;;;7.93;;